This is the latest recevied weather packets stored in our database for station/object KI6PPU. If no packets are shown the sender has not sent any weather packets the latest 1 day(s).
| Time | Temp. | Humidity | Pressure | Rain* | Wind** | Luminosity | Snow |
|---|---|---|---|---|---|---|---|
| 1778094804 | 17.78° C | 79% | 1023.3 hPa | 0 mm | - | 234 W/m² | - |
| 1778094501 | 17.78° C | 78% | 1023 hPa | 0 mm | - | 228 W/m² | - |
| 1778092075 | 17.78° C | 79% | 1023.2 hPa | 0 mm | - | 218 W/m² | - |
| 1778091772 | 17.78° C | 78% | 1023.2 hPa | 0 mm | - | 221 W/m² | - |
| 1778091470 | 17.78° C | 80% | 1023.3 hPa | 0 mm | - | 225 W/m² | - |
| 1778090560 | 17.78° C | 77% | 1023 hPa | 0 mm | - | 237 W/m² | - |
| 1778089651 | 18.33° C | 75% | 1023.1 hPa | 0 mm | - | 324 W/m² | - |
| 1778088742 | 17.78° C | 80% | 1023.1 hPa | 0 mm | - | 296 W/m² | - |
| 1778088439 | 17.22° C | 80% | 1023.2 hPa | 0 mm | - | 309 W/m² | - |
| 1778087228 | 17.22° C | 81% | 1023.1 hPa | 0 mm | - | 262 W/m² | - |
| 1778086319 | 16.67° C | 85% | 1023 hPa | 0 mm | - | 192 W/m² | - |
| 1778085105 | 16.11° C | 84% | 1022.9 hPa | 0 mm | - | 171 W/m² | - |
| 1778084499 | 16.11° C | 84% | 1023 hPa | 0 mm | - | 160 W/m² | - |
| 1778084196 | 16.11° C | 84% | 1022.9 hPa | 0 mm | - | 165 W/m² | - |
| 1778083287 | 15° C | 88% | 1022.9 hPa | 0 mm | - | 164 W/m² | - |
| 1778081545 | 14.44° C | 90% | 1023 hPa | 0 mm | - | 105 W/m² | - |
| 1778080334 | 13.33° C | 96% | 1022.9 hPa | 0 mm | - | 81 W/m² | - |
| 1778077911 | 12.78° C | 97% | 1022.7 hPa | 0 mm | - | 35 W/m² | - |
| 1778076097 | 12.22° C | 97% | 1022.6 hPa | 0 mm | - | 17 W/m² | - |
| 1778074882 | 12.22° C | 97% | 1022.3 hPa | 0 mm | - | 10 W/m² | - |
| 1778074580 | 12.22° C | 97% | 1022.2 hPa | 0 mm | - | 9 W/m² | - |
| 1778073671 | 12.22° C | 97% | 1022.3 hPa | 0 mm | - | 1 W/m² | - |
| 1778071552 | 12.22° C | 97% | 1022.1 hPa | 0 mm | - | 0 W/m² | - |
| 1778070040 | 12.22° C | 97% | 1021.9 hPa | 0 mm | - | 0 W/m² | - |
| 1778069433 | 12.22° C | 97% | 1021.9 hPa | 0 mm | - | 0 W/m² | - |
* Rain latest hour (hover to see other rain measurements)
** Current wind speed in m/s (hover to see current wind gust speed)